Pagina principale
METAR-TAF:

METAR-TAF

Aeroporti :

Air Force Base Waterkloof

Waterkloof, Sudafrica

latitudine: 25-50S, longitudine: 028-13E, altezza: 1498 m

Osservazione

Il bollettino è stato emesso 44 minuti fa, alle 00:00 UTC
Vento 3 kt da sud/sud-est
Temperature 7°C
Umidità 70%
Pressione 1029 hPa

METAR: FAWK 310000Z AUTO 16003KT //// // ////// 07/02 Q1029

Ora: 02:44 (00:44 UTC)

Previsione

Il bollettino è stato emesso 15 ore e 44 minuti fa, alle 09:00 UTC
Previsione valida dal 30 alle 10 UTC al 30 alle 18 UTC
Vento 3 kt da direzioni variabili
Visibilità 10 km o più
nessuna nube inferiore a 1500 m e nessun cumulonembo

TAF: FAWK 300900Z 3010/3018 VRB03KT CAVOK TX23/3013Z TN13/3018Z

Osservazioni e previsioni meteorologiche di più di 4000 aeroporti (messaggi METAR e TAF).

Le stazioni disponibili sono rappresentate dai dischi gialli e rossi sulla carta.

Puntare il mouse per vedere il nome della stazione.

Clicca sopra per visualizzare le osservazioni e previsioni meteorologiche.

Per cambiare la mappa : fare clic sui pulsanti verdi con una croce nera per ingrandire, il pulsante verde con un trattino per diminuire, o sulla freccia verde per le mappe adiacenti.


METAR-TAF: